Bell, Florida
Current Conditions -  °F | °C
As of 9:15 PM on Monday 22 Dec 2014 (Local Time) from KLCQ Reporting Station
Overcast Overcast  
Wind Chill: 68°   Ceiling: 600
Heat Index: 68°   Visibility: 7mi
Dew Point: 68°   Wind: 0mph
Humidity: 100%   Direction: NA
Pressure: 29.92"   Gusts: NA
Location:  29.76°N, 82.86°W
Report Text: KLCQ 230215Z AUTO 00000KT 7SM OVC006 20/20 A2992 RMK AO2 LTG DSNT SE AND NW
Loading
Personal Weather Stations






























Interactive Weather Map New forecast layout! Learn more

10-Day Weather Forecast

Advertisements
Track Severe Weather on mobile